Startpagina
METAR-TAF:

METAR-TAF

Vliegvelden :

Luchthaven Belgrado Nikola Tesla

Belgrado, Servië

breedte: 44-49N, lengte: 020-17E, hoogte: 96 m

Actueel weer

Dit bericht is 23 minuten geleden gemaakt, om 17:00 UTC
Wind 7 kt uit het westzuidwesten
Temperatuur 9°C
Vochtigheid 61%
Druk 1031 hPa
Zicht 10 km of meer
geen wolken onder 1500 m en geen cumulonimbus

METAR: LYBE 201700Z 25007KT CAVOK 09/02 Q1031 NOSIG

Tijdstip: 18:23 (17:23 UTC)

Verwachting

Dit bericht is 6 uur en het 23 minuten geleden gemaakt, om 11:00 UTC
Verwachting geldig van 20 om 12 UTC tot 21 om 12 UTC
Wind 7 kt uit het noordwesten
Zicht 10 km of meer
geen wolken onder 1500 m en geen cumulonimbus
Tijdelijke
van 20 om 12 UTC tot 20 om 16 UTC
Wind 17 kt uit het noorden

TAF: LYBE 201100Z 2012/2112 31007KT CAVOK TX14/2112Z TN03/2105Z TEMPO 2012/2016 01017KT

Waarnemingen en weersverwachtingen van meer dan 4000 vliegvelden (METAR en TAF).

De beschikbare stations zijn de gele en rode punten op de kaart.

Ga met uw muis naar het station om de naam te zien.

Klik dan om waarnemingen en weersverwachtingen te zien.

kaart wijzigen: klik op de groene knoppen met een zwart kruis om in te zoomen, op de groene knop met een streepje om uit te zoomen of op de groene pijlen voor aangrenzende kaarten.


METAR-TAF: